Time;durP1;ratioP1;P1;durP2;ratioP2;P2;SDS_P1;SDS_P2;PMS_P1;PMS_P2;Temp;Humidity;BMP_temperature;BMP_pressure;BME280_temperature;BME280_humidity;BME280_pressure;Samples;Min_cycle;Max_cycle;Signal;HPM_P1;HPM_P2
2022/11/25 04:54:02;;;;;;;8.45;1.77;;;13.50;73.10;;;;;;5639732;24;20066;-74
2022/11/25 04:56:28;;;;;;;10.73;1.88;;;13.90;72.50;;;;;;4773421;30;20056;-75
2022/11/25 05:01:38;;;;;;;7.47;1.77;;;14.50;71.50;;;;;;4773481;30;20047;-73
2022/11/25 05:04:04;;;;;;;8.55;1.65;;;14.70;71.40;;;;;;4803970;29;20051;-74
2022/11/25 05:06:30;;;;;;;9.55;2.33;;;14.80;71.20;;;;;;4805165;29;20047;-74
2022/11/25 05:08:55;;;;;;;5.55;1.42;;;14.90;71.00;;;;;;4792301;29;20054;-75
2022/11/25 05:11:21;;;;;;;9.25;2.28;;;14.90;70.90;;;;;;4809200;29;20403;-75
2022/11/25 05:13:47;;;;;;;4.93;2.00;;;15.00;71.00;;;;;;4793540;29;20069;-74
2022/11/25 05:16:12;;;;;;;18.27;2.65;;;15.00;71.10;;;;;;4805287;29;20524;-74
2022/11/25 05:18:38;;;;;;;19.85;2.88;;;15.00;71.20;;;;;;4790866;30;20054;-75
2022/11/25 05:21:05;;;;;;;17.95;2.58;;;15.00;71.30;;;;;;4790914;30;20061;-76
2022/11/25 05:23:51;;;;;;;20.40;2.95;;;15.00;71.50;;;;;;4790918;30;20039;-78
2022/11/25 05:26:35;;;;;;;14.52;2.10;;;15.00;71.50;;;;;;4783697;29;20122;-79
2022/11/25 05:35:59;;;;;;;22.67;2.22;;;15.10;71.70;;;;;;4684971;30;20470;-75
2022/11/25 05:38:25;;;;;;;21.67;2.58;;;15.20;71.90;;;;;;4699947;30;20069;-74
2022/11/25 05:40:52;;;;;;;15.30;3.03;;;15.20;71.80;;;;;;4742299;30;20360;-76
2022/11/25 05:43:17;;;;;;;20.95;4.25;;;15.30;71.70;;;;;;4800339;29;20105;-75
2022/11/25 05:45:43;;;;;;;20.40;2.45;;;15.30;71.90;;;;;;4776055;30;20455;-75
2022/11/25 05:48:10;;;;;;;19.67;2.22;;;15.40;71.80;;;;;;4779809;29;20093;-82
2022/11/25 05:50:38;;;;;;;13.68;2.60;;;15.50;71.70;;;;;;4798597;29;20055;-78
2022/11/25 05:53:04;;;;;;;16.02;2.30;;;15.60;71.40;;;;;;4790699;29;20047;-75
2022/11/25 05:55:30;;;;;;;13.75;2.78;;;15.70;71.10;;;;;;4809407;29;20059;-75
2022/11/25 05:58:03;;;;;;;12.73;2.00;;;15.80;71.10;;;;;;4811914;29;20055;-78
2022/11/25 06:00:31;;;;;;;10.77;2.65;;;15.80;71.00;;;;;;4820784;29;20039;-79
2022/11/25 06:02:57;;;;;;;21.73;3.08;;;15.90;71.10;;;;;;4808935;29;20078;-76
2022/11/25 06:05:25;;;;;;;15.25;3.25;;;15.80;71.30;;;;;;4805387;29;20427;-81
2022/11/25 06:08:08;;;;;;;14.32;2.92;;;15.80;71.40;;;;;;4821465;29;20119;-78
2022/11/25 06:10:36;;;;;;;11.25;2.50;;;15.80;71.70;;;;;;4810092;29;20054;-79
2022/11/25 06:13:02;;;;;;;10.20;2.38;;;15.80;71.70;;;;;;4781278;29;20054;-80
2022/11/25 06:15:34;;;;;;;7.05;2.13;;;15.70;71.10;;;;;;4804343;29;20046;-80
2022/11/25 06:18:03;;;;;;;11.70;2.50;;;15.70;70.70;;;;;;4824338;29;20042;-79
2022/11/25 06:20:40;;;;;;;12.43;2.70;;;15.70;70.40;;;;;;4808929;29;20051;-80
2022/11/25 06:23:09;;;;;;;11.93;2.63;;;15.60;70.00;;;;;;4821666;29;20489;-79
2022/11/25 06:25:35;;;;;;;12.80;2.67;;;15.50;69.60;;;;;;4826111;29;20490;-81
2022/11/25 06:28:20;;;;;;;6.78;2.22;;;15.50;69.40;;;;;;4825952;29;20050;-79
2022/11/25 06:30:46;;;;;;;9.70;2.92;;;15.40;68.90;;;;;;4826188;29;20050;-79
2022/11/25 06:33:19;;;;;;;8.15;2.33;;;15.30;68.90;;;;;;4811351;29;20122;-77
2022/11/25 06:35:45;;;;;;;20.05;3.35;;;15.30;68.60;;;;;;4777528;29;20059;-80
2022/11/25 06:38:13;;;;;;;10.10;3.00;;;15.20;68.60;;;;;;4797907;29;20347;-79
2022/11/25 06:40:39;;;;;;;12.65;2.85;;;15.10;68.80;;;;;;4808964;29;20071;-77
2022/11/25 06:43:08;;;;;;;16.23;3.03;;;15.10;69.10;;;;;;4805595;29;20103;-77
2022/11/25 06:45:33;;;;;;;20.52;3.60;;;15.20;69.30;;;;;;4825975;29;20070;-79
2022/11/25 06:48:02;;;;;;;12.20;2.53;;;15.20;69.40;;;;;;4795045;29;20049;-79
2022/11/25 06:50:27;;;;;;;14.20;3.03;;;15.30;69.40;;;;;;4792834;29;20088;-79
2022/11/25 06:52:53;;;;;;;9.82;2.42;;;15.30;69.50;;;;;;4805848;29;20097;-80
2022/11/25 06:55:19;;;;;;;10.02;2.28;;;15.30;69.50;;;;;;4829191;29;20133;-78
2022/11/25 06:57:44;;;;;;;19.73;2.58;;;15.30;69.70;;;;;;4813154;29;20133;-79
2022/11/25 07:00:10;;;;;;;23.33;3.50;;;15.30;69.80;;;;;;4829586;29;20046;-78
2022/11/25 07:02:36;;;;;;;18.02;2.47;;;15.30;70.10;;;;;;4820252;29;20383;-79
2022/11/25 07:05:02;;;;;;;16.23;2.92;;;15.30;70.20;;;;;;4811276;29;20055;-78
2022/11/25 07:07:27;;;;;;;18.35;2.40;;;15.40;70.20;;;;;;4812105;29;20057;-78
2022/11/25 07:09:53;;;;;;;13.70;2.90;;;15.30;70.10;;;;;;4825096;29;20142;-78
2022/11/25 07:12:19;;;;;;;15.48;2.40;;;15.30;70.10;;;;;;4801217;29;20473;-79
2022/11/25 07:14:45;;;;;;;17.98;3.25;;;15.30;70.00;;;;;;4829360;29;20114;-80
2022/11/25 07:17:10;;;;;;;14.23;2.42;;;15.30;70.00;;;;;;4828868;29;20137;-79
2022/11/25 07:19:36;;;;;;;8.55;1.92;;;15.30;70.00;;;;;;4828931;29;20126;-78
2022/11/25 07:22:02;;;;;;;9.07;2.40;;;15.30;70.00;;;;;;4809450;29;20123;-79
2022/11/25 07:24:28;;;;;;;10.50;2.90;;;15.20;69.90;;;;;;4811096;29;20047;-79
2022/11/25 07:26:53;;;;;;;10.85;3.00;;;15.20;69.90;;;;;;4810833;29;20135;-81
2022/11/25 07:29:19;;;;;;;12.27;2.55;;;15.20;70.00;;;;;;4810850;29;20043;-77
2022/11/25 07:31:45;;;;;;;10.15;2.40;;;15.20;70.00;;;;;;4810041;29;20077;-77
2022/11/25 07:34:16;;;;;;;12.93;2.65;;;15.10;69.90;;;;;;4812572;29;20101;-77
2022/11/25 07:36:42;;;;;;;16.63;2.95;;;15.10;70.10;;;;;;4812494;29;20058;-79
2022/11/25 07:39:11;;;;;;;11.98;2.47;;;15.20;70.30;;;;;;4801257;29;20456;-79
2022/11/25 07:41:37;;;;;;;9.45;2.58;;;15.30;70.60;;;;;;4810291;29;20057;-78
2022/11/25 07:44:04;;;;;;;13.13;2.65;;;15.40;70.60;;;;;;4809895;29;20051;-77
2022/11/25 07:46:32;;;;;;;10.73;3.13;;;15.50;70.40;;;;;;4810526;29;20106;-78
2022/11/25 07:49:01;;;;;;;12.60;2.38;;;15.60;70.20;;;;;;4810298;29;20058;-79
2022/11/25 07:51:30;;;;;;;13.95;2.45;;;15.70;70.20;;;;;;4811162;29;20055;-80
2022/11/25 07:53:58;;;;;;;7.22;1.98;;;15.70;70.10;;;;;;4810458;29;20423;-80
2022/11/25 07:56:24;;;;;;;8.20;2.25;;;15.70;70.00;;;;;;4781330;29;20058;-81
2022/11/25 07:58:50;;;;;;;11.48;2.33;;;15.70;70.00;;;;;;4810036;29;20054;-78
2022/11/25 08:01:17;;;;;;;8.63;2.40;;;15.70;70.70;;;;;;4812780;29;20062;-80
2022/11/25 08:03:45;;;;;;;10.32;1.90;;;15.70;70.10;;;;;;4811809;29;20146;-77
2022/11/25 08:06:13;;;;;;;10.85;1.80;;;15.60;70.20;;;;;;4828411;29;20058;-79
2022/11/25 08:08:40;;;;;;;9.63;2.53;;;15.60;70.20;;;;;;4803016;29;20051;-78
2022/11/25 08:11:14;;;;;;;9.43;2.85;;;15.60;70.20;;;;;;4817704;29;20093;-80
2022/11/25 08:13:40;;;;;;;9.23;1.67;;;15.50;70.20;;;;;;4827955;29;20050;-77
2022/11/25 08:16:07;;;;;;;10.50;2.25;;;15.50;70.30;;;;;;4828496;29;20058;-80
2022/11/25 08:18:33;;;;;;;11.35;2.10;;;15.50;70.60;;;;;;4816288;29;20147;-78
2022/11/25 08:21:00;;;;;;;11.57;1.75;;;15.40;70.70;;;;;;4810450;29;20479;-76
2022/11/25 08:23:26;;;;;;;7.00;1.42;;;15.40;70.70;;;;;;4824230;29;20367;-79
2022/11/25 08:25:51;;;;;;;5.18;1.50;;;15.40;70.70;;;;;;4810009;29;20051;-79
2022/11/25 08:28:17;;;;;;;6.65;1.17;;;15.30;70.60;;;;;;4818692;29;20065;-77
2022/11/25 08:30:43;;;;;;;6.82;1.52;;;15.40;70.70;;;;;;4826649;29;20133;-80
2022/11/25 08:33:09;;;;;;;12.40;1.40;;;15.30;70.80;;;;;;4811705;29;20362;-79
2022/11/25 08:35:37;;;;;;;9.77;1.30;;;15.30;70.90;;;;;;4827646;29;20099;-79
2022/11/25 08:38:12;;;;;;;6.60;1.55;;;15.10;70.20;;;;;;4820509;29;20058;-80
2022/11/25 08:40:43;;;;;;;6.40;1.15;;;15.00;70.40;;;;;;4804938;29;20050;-79
2022/11/25 08:43:12;;;;;;;7.63;1.65;;;14.90;70.80;;;;;;4788214;29;20050;-79
2022/11/25 08:45:38;;;;;;;5.07;1.13;;;14.90;71.10;;;;;;4827478;29;20094;-80
2022/11/25 08:48:04;;;;;;;11.13;1.10;;;14.80;71.20;;;;;;4804755;29;20072;-77
2022/11/25 08:50:31;;;;;;;6.20;0.88;;;14.70;71.40;;;;;;4809777;29;20047;-81
2022/11/25 08:52:58;;;;;;;6.57;1.20;;;14.70;71.40;;;;;;4818713;29;20074;-79
2022/11/25 08:59:18;;;;;;;5.47;1.42;;;14.60;71.30;;;;;;4822359;29;20098;-81
2022/11/25 09:01:44;;;;;;;5.15;1.40;;;14.70;72.10;;;;;;4796179;29;20069;-83
2022/11/25 09:04:10;;;;;;;10.13;1.52;;;14.60;71.30;;;;;;4811107;29;20046;-80
2022/11/25 09:06:38;;;;;;;6.53;1.25;;;14.60;71.30;;;;;;4811221;29;20069;-80
2022/11/25 09:09:04;;;;;;;5.07;1.23;;;14.60;71.30;;;;;;4814869;29;20454;-80
2022/11/25 09:11:30;;;;;;;5.82;0.90;;;14.60;71.50;;;;;;4792340;29;20059;-78
2022/11/25 09:13:56;;;;;;;4.38;0.80;;;14.60;71.60;;;;;;4798866;29;20129;-79
2022/11/25 09:16:22;;;;;;;2.22;0.98;;;14.60;71.70;;;;;;4810980;29;20352;-80
2022/11/25 09:18:48;;;;;;;3.58;1.30;;;14.60;71.70;;;;;;4795992;29;20058;-79
2022/11/25 09:21:15;;;;;;;3.28;0.80;;;14.50;71.60;;;;;;4808160;29;20070;-78
2022/11/25 09:23:41;;;;;;;5.72;1.20;;;14.50;71.60;;;;;;4808648;29;20054;-77
2022/11/25 09:26:15;;;;;;;6.68;0.98;;;14.50;71.60;;;;;;4809000;29;20051;-79
2022/11/25 09:28:40;;;;;;;3.35;0.90;;;14.50;71.70;;;;;;4819503;29;20061;-81
2022/11/25 09:31:08;;;;;;;5.05;0.80;;;14.50;71.70;;;;;;4826680;29;20404;-79
2022/11/25 09:33:34;;;;;;;5.72;1.10;;;14.50;71.80;;;;;;4825945;29;20061;-77
2022/11/25 09:36:00;;;;;;;5.45;1.23;;;14.60;71.80;;;;;;4810206;29;20055;-77
2022/11/25 09:38:31;;;;;;;11.55;1.73;;;14.60;71.70;;;;;;4816121;29;20049;-80
2022/11/25 09:47:34;;;;;;;4.75;1.65;;;14.70;70.40;;;;;;4822294;29;20055;-79
2022/11/25 09:50:11;;;;;;;9.60;2.13;;;14.70;70.30;;;;;;4788923;30;20071;-79
2022/11/25 09:52:40;;;;;;;6.15;1.67;;;14.70;70.30;;;;;;4811941;29;20053;-77
2022/11/25 09:55:14;;;;;;;8.80;2.03;;;14.70;70.30;;;;;;4807193;29;20113;-77
2022/11/25 09:58:12;;;;;;;8.45;1.90;;;14.90;70.40;;;;;;4806639;29;20057;-77
2022/11/25 10:00:42;;;;;;;7.93;1.48;;;15.10;70.30;;;;;;4807617;29;20055;-78
2022/11/25 10:03:41;;;;;;;6.50;1.27;;;15.20;70.00;;;;;;4801761;29;20046;-79
2022/11/25 10:06:25;;;;;;;10.15;1.80;;;15.40;69.90;;;;;;4795915;29;20482;-77
2022/11/25 10:08:57;;;;;;;4.97;1.23;;;15.40;69.80;;;;;;4789895;29;20554;-78
2022/11/25 10:11:47;;;;;;;4.47;1.75;;;15.50;69.70;;;;;;4789978;29;20344;-76
2022/11/25 10:14:33;;;;;;;7.65;1.15;;;15.50;69.70;;;;;;4808143;29;20051;-76
2022/11/25 10:17:08;;;;;;;11.20;1.60;;;15.60;69.70;;;;;;4796919;29;20087;-79
2022/11/25 10:19:46;;;;;;;7.07;1.52;;;15.60;69.80;;;;;;4790592;30;20051;-79
2022/11/25 10:22:21;;;;;;;5.90;0.90;;;15.50;69.80;;;;;;4796320;29;20486;-78
2022/11/25 10:24:48;;;;;;;7.93;1.83;;;15.50;69.80;;;;;;4808170;29;20051;-77
2022/11/25 10:27:40;;;;;;;5.07;1.20;;;15.60;70.00;;;;;;4805608;29;20485;-79
2022/11/25 10:30:15;;;;;;;9.40;1.10;;;15.50;70.10;;;;;;4789911;29;20111;-78
2022/11/25 10:32:52;;;;;;;6.85;1.23;;;15.50;70.10;;;;;;4802764;29;20077;-77
2022/11/25 10:35:37;;;;;;;6.30;1.42;;;15.50;70.20;;;;;;4807024;29;20055;-77
2022/11/25 10:38:10;;;;;;;6.10;1.40;;;15.50;69.80;;;;;;4807974;29;20139;-77
2022/11/25 10:40:36;;;;;;;10.40;1.60;;;15.50;69.50;;;;;;4808246;29;20051;-78
2022/11/25 10:43:12;;;;;;;6.05;1.73;;;15.50;69.40;;;;;;4808121;29;20061;-76
2022/11/25 10:45:57;;;;;;;5.93;1.48;;;15.40;70.00;;;;;;4807461;29;20364;-79
2022/11/25 10:48:40;;;;;;;9.00;1.52;;;15.40;69.80;;;;;;4806848;29;20046;-77
2022/11/25 10:51:34;;;;;;;7.00;1.23;;;15.40;70.00;;;;;;4807571;29;20062;-78
2022/11/25 10:54:22;;;;;;;7.43;1.90;;;15.30;70.10;;;;;;4807012;29;20130;-79
2022/11/25 10:56:51;;;;;;;6.22;1.40;;;15.30;70.40;;;;;;4807586;29;20050;-76
2022/11/25 10:59:27;;;;;;;6.95;1.05;;;15.30;70.60;;;;;;4807805;29;20046;-78
2022/11/25 11:02:05;;;;;;;9.88;1.83;;;15.30;70.80;;;;;;4807001;29;20099;-78
2022/11/25 11:04:32;;;;;;;6.07;1.73;;;15.30;71.10;;;;;;4807901;29;20091;-77
2022/11/25 11:07:07;;;;;;;8.20;1.75;;;15.20;71.30;;;;;;4792238;29;20055;-80
2022/11/25 11:09:39;;;;;;;5.65;1.70;;;15.20;71.70;;;;;;4788918;30;20467;-76
2022/11/25 11:12:22;;;;;;;8.68;1.90;;;15.20;71.90;;;;;;4789823;29;20070;-78
2022/11/25 11:14:48;;;;;;;9.52;1.83;;;15.20;71.60;;;;;;4789040;29;20063;-77
2022/11/25 11:17:34;;;;;;;7.97;2.20;;;15.20;71.30;;;;;;4789476;29;20059;-77
2022/11/25 11:20:18;;;;;;;9.60;2.50;;;15.20;69.90;;;;;;4793019;29;20051;-77
2022/11/25 11:22:48;;;;;;;11.13;2.47;;;15.10;68.80;;;;;;4804781;29;20556;-77
2022/11/25 11:25:34;;;;;;;6.93;2.33;;;15.10;67.80;;;;;;4804468;29;20059;-77
2022/11/25 11:28:02;;;;;;;5.63;1.83;;;14.90;68.00;;;;;;4836282;29;20051;-77
2022/11/25 11:30:31;;;;;;;9.45;2.25;;;14.80;69.00;;;;;;4807333;29;20069;-77
2022/11/25 11:33:23;;;;;;;10.07;1.70;;;14.80;69.30;;;;;;4807271;29;20051;-78
2022/11/25 11:35:58;;;;;;;9.02;2.35;;;14.80;69.30;;;;;;4809458;29;20050;-76
2022/11/25 11:38:30;;;;;;;6.60;2.00;;;14.80;69.40;;;;;;4810802;29;20046;-77
2022/11/25 11:41:14;;;;;;;12.52;2.22;;;14.80;69.50;;;;;;4810736;29;20054;-80
2022/11/25 11:44:00;;;;;;;11.60;2.35;;;14.80;69.60;;;;;;4802892;29;20058;-77
2022/11/25 11:46:32;;;;;;;11.80;2.00;;;14.80;69.60;;;;;;4792628;29;20039;-77
2022/11/25 11:49:34;;;;;;;7.18;1.92;;;14.80;69.60;;;;;;4792392;29;20095;-77
2022/11/25 11:52:09;;;;;;;7.35;1.55;;;14.80;69.50;;;;;;4791451;29;20059;-78
2022/11/25 11:54:58;;;;;;;5.50;1.55;;;14.80;69.50;;;;;;4804366;29;20107;-76
2022/11/25 11:57:23;;;;;;;6.25;1.92;;;14.80;69.50;;;;;;4810227;29;20066;-77
2022/11/25 11:59:54;;;;;;;3.92;1.30;;;14.80;69.60;;;;;;4809747;29;20051;-79
2022/11/25 12:02:50;;;;;;;8.60;1.85;;;14.80;69.60;;;;;;4800961;29;20135;-78
2022/11/25 12:05:23;;;;;;;4.55;1.10;;;14.80;69.60;;;;;;4792268;29;20059;-75
2022/11/25 12:08:19;;;;;;;6.72;1.90;;;14.80;69.60;;;;;;4792008;29;20061;-79
2022/11/25 12:10:53;;;;;;;4.97;1.52;;;14.80;69.60;;;;;;4791548;30;20055;-78
2022/11/25 12:13:46;;;;;;;6.25;1.00;;;14.70;69.60;;;;;;4807194;29;20054;-78
2022/11/25 12:16:47;;;;;;;5.47;1.00;;;14.70;69.60;;;;;;4810086;29;20059;-77
2022/11/25 12:19:25;;;;;;;7.78;1.77;;;14.70;69.60;;;;;;4808920;29;20413;-78
2022/11/25 12:22:02;;;;;;;7.60;1.63;;;14.70;69.70;;;;;;4804535;29;20201;-77
2022/11/25 12:24:40;;;;;;;7.00;1.30;;;14.70;69.80;;;;;;4792303;29;20111;-78
2022/11/25 12:27:14;;;;;;;4.97;1.27;;;14.70;69.80;;;;;;4792380;30;20055;-76
2022/11/25 12:30:04;;;;;;;2.80;1.02;;;14.70;69.80;;;;;;4792387;29;20047;-77
2022/11/25 12:32:55;;;;;;;7.50;2.10;;;14.70;69.80;;;;;;4800403;29;20123;-77
2022/11/25 12:35:36;;;;;;;6.57;1.75;;;14.70;69.80;;;;;;4810064;29;20047;-78
2022/11/25 12:38:17;;;;;;;6.05;1.55;;;14.70;69.90;;;;;;4810600;29;20154;-78
2022/11/25 12:40:55;;;;;;;4.00;1.10;;;14.70;70.50;;;;;;4808902;29;20375;-77
2022/11/25 12:43:38;;;;;;;4.28;1.50;;;14.70;70.00;;;;;;4794613;29;20134;-77
2022/11/25 12:46:28;;;;;;;5.65;1.20;;;14.70;70.00;;;;;;4790453;29;20512;-80
2022/11/25 12:48:56;;;;;;;4.05;1.10;;;14.70;69.90;;;;;;4791762;29;20344;-77
2022/11/25 12:51:37;;;;;;;5.50;1.63;;;14.70;70.10;;;;;;4791287;29;20057;-76
2022/11/25 12:54:40;;;;;;;5.03;1.08;;;14.60;70.00;;;;;;4773690;30;20055;-77
2022/11/25 12:57:27;;;;;;;6.57;1.20;;;14.60;70.00;;;;;;4773621;30;20078;-78
2022/11/25 13:00:00;;;;;;;6.20;1.45;;;14.70;70.10;;;;;;4773260;30;20059;-77
2022/11/25 13:02:38;;;;;;;4.55;1.10;;;14.60;70.10;;;;;;4787816;29;20375;-76
2022/11/25 13:05:16;;;;;;;4.05;0.90;;;14.60;70.10;;;;;;4809438;29;20069;-75
2022/11/25 13:08:07;;;;;;;5.20;0.80;;;14.60;70.10;;;;;;4808698;29;20067;-79
2022/11/25 13:10:44;;;;;;;4.90;1.17;;;14.60;70.20;;;;;;4808760;29;20532;-77
2022/11/25 13:13:31;;;;;;;2.55;0.93;;;14.60;70.20;;;;;;4795652;29;20055;-78
2022/11/25 13:15:58;;;;;;;3.20;1.02;;;14.60;70.20;;;;;;4791246;29;20047;-77
2022/11/25 13:18:28;;;;;;;5.45;1.17;;;14.60;70.20;;;;;;4791639;29;20051;-78
2022/11/25 13:20:55;;;;;;;4.35;1.23;;;14.60;70.20;;;;;;4790815;30;20440;-77
2022/11/25 13:23:26;;;;;;;3.97;0.88;;;14.60;70.30;;;;;;4803834;29;20068;-78
2022/11/25 13:26:13;;;;;;;4.63;1.20;;;14.60;70.30;;;;;;4809300;29;20055;-76
2022/11/25 13:28:38;;;;;;;7.47;1.20;;;14.60;70.30;;;;;;4808999;29;20467;-78
2022/11/25 13:31:13;;;;;;;9.00;1.80;;;14.60;70.40;;;;;;4808762;29;20069;-80
2022/11/25 13:33:42;;;;;;;11.98;2.72;;;14.60;70.40;;;;;;4792653;29;20138;-80
2022/11/25 13:37:02;;;;;;;10.50;2.00;;;14.60;70.40;;;;;;4791138;29;20093;-76
2022/11/25 13:39:36;;;;;;;18.67;2.90;;;14.60;70.30;;;;;;4789192;29;20146;-78
2022/11/25 13:42:23;;;;;;;15.80;2.58;;;14.60;70.50;;;;;;4801084;29;20116;-74
2022/11/25 13:44:55;;;;;;;15.50;2.67;;;14.60;70.90;;;;;;4808582;29;20058;-76
2022/11/25 13:47:27;;;;;;;26.23;3.08;;;14.80;71.00;;;;;;4805052;29;20138;-76
2022/11/25 13:50:04;;;;;;;29.00;4.13;;;15.00;71.00;;;;;;4789972;30;20101;-79
2022/11/25 13:52:32;;;;;;;22.52;3.20;;;15.10;70.80;;;;;;4790462;29;20360;-79
2022/11/25 13:55:12;;;;;;;30.08;4.10;;;15.30;70.70;;;;;;4789932;30;20074;-81
2022/11/25 13:57:40;;;;;;;24.50;3.53;;;15.40;70.80;;;;;;4793527;29;20477;-79
2022/11/25 14:00:14;;;;;;;17.92;3.35;;;15.40;70.80;;;;;;4808462;29;20122;-81
2022/11/25 14:02:45;;;;;;;17.73;2.53;;;15.50;70.90;;;;;;4779216;30;20051;-82
2022/11/25 14:05:38;;;;;;;20.65;3.00;;;15.50;71.00;;;;;;4789275;30;20122;-80
2022/11/25 14:08:25;;;;;;;25.65;3.17;;;15.50;71.40;;;;;;4789259;30;20062;-80
2022/11/25 14:11:29;;;;;;;16.00;2.78;;;15.50;71.60;;;;;;4804231;29;20050;-80
2022/11/25 14:14:22;;;;;;;17.08;2.42;;;15.50;71.80;;;;;;4771611;30;20048;-82
2022/11/25 14:17:00;;;;;;;27.05;3.00;;;15.50;72.00;;;;;;4771508;30;20427;-82
2022/11/25 14:19:32;;;;;;;14.20;3.08;;;15.50;72.10;;;;;;4771392;30;20413;-77
2022/11/25 14:22:34;;;;;;;26.45;3.60;;;15.50;72.70;;;;;;4785401;29;20126;-81
2022/11/25 14:25:54;;;;;;;20.48;3.00;;;15.50;71.80;;;;;;5133323;27;20385;-81
2022/11/25 14:28:46;;;;;;;27.40;3.72;;;15.50;72.30;;;;;;5095028;28;20044;-80
2022/11/25 14:31:20;;;;;;;20.85;3.17;;;15.50;72.50;;;;;;5112327;28;20469;-80
2022/11/25 14:34:22;;;;;;;19.85;3.10;;;15.50;72.50;;;;;;5094715;28;20138;-79
2022/11/25 14:36:52;;;;;;;16.63;2.53;;;15.40;72.60;;;;;;5112902;28;20047;-81
2022/11/25 14:39:51;;;;;;;18.30;3.47;;;15.40;72.50;;;;;;5094758;28;20043;-81
2022/11/25 14:42:22;;;;;;;15.85;2.92;;;15.40;72.40;;;;;;5103844;28;20032;-79
2022/11/25 14:44:57;;;;;;;16.02;2.92;;;15.40;71.90;;;;;;5074284;28;20048;-79
2022/11/25 14:47:29;;;;;;;19.58;4.05;;;15.40;71.50;;;;;;5074619;28;20043;-77
2022/11/25 14:49:58;;;;;;;17.65;3.03;;;15.40;71.00;;;;;;5092947;28;20040;-80
2022/11/25 14:52:33;;;;;;;13.20;3.08;;;15.30;70.60;;;;;;5092148;28;20043;-79
2022/11/25 14:55:00;;;;;;;13.75;2.70;;;15.30;70.30;;;;;;5074547;28;20048;-79
2022/11/25 14:57:33;;;;;;;17.58;3.38;;;15.30;70.40;;;;;;5090939;28;20055;-78
2022/11/25 15:00:09;;;;;;;30.85;3.63;;;15.30;70.00;;;;;;5104727;28;20036;-78
2022/11/25 15:02:40;;;;;;;21.02;3.15;;;15.30;69.70;;;;;;5091533;28;20119;-78
2022/11/25 15:05:19;;;;;;;15.70;3.78;;;15.20;69.90;;;;;;5091933;28;20365;-77
2022/11/25 15:08:16;;;;;;;16.15;2.58;;;15.20;70.00;;;;;;5092963;28;20044;-78
2022/11/25 15:10:50;;;;;;;16.35;4.35;;;15.20;70.10;;;;;;5090836;28;20056;-79
2022/11/25 15:13:28;;;;;;;12.63;2.55;;;15.10;70.20;;;;;;5112078;28;20039;-78
2022/11/25 15:15:57;;;;;;;14.00;2.55;;;15.10;70.20;;;;;;5094895;28;20040;-78
2022/11/25 15:18:24;;;;;;;12.32;2.45;;;15.10;70.30;;;;;;5112076;28;20040;-77
2022/11/25 15:20:56;;;;;;;11.13;2.40;;;15.10;70.40;;;;;;5100409;28;20371;-77
2022/11/25 15:23:42;;;;;;;8.00;1.95;;;15.10;70.40;;;;;;5091523;28;20052;-78
2022/11/25 15:26:20;;;;;;;14.40;2.33;;;15.00;69.70;;;;;;5091399;28;20044;-77
2022/11/25 15:28:46;;;;;;;12.32;2.50;;;15.00;70.50;;;;;;5074594;28;20048;-78
2022/11/25 15:31:18;;;;;;;14.20;2.60;;;15.00;70.60;;;;;;5087910;28;20048;-76
2022/11/25 15:33:44;;;;;;;10.02;2.78;;;15.00;70.60;;;;;;5112514;28;20135;-78
2022/11/25 15:36:10;;;;;;;11.70;2.75;;;15.00;70.70;;;;;;5102768;28;20389;-77
2022/11/25 15:38:44;;;;;;;11.75;2.53;;;14.90;70.60;;;;;;5097880;28;20074;-76
2022/11/25 15:41:25;;;;;;;11.45;2.22;;;15.00;70.60;;;;;;5084037;28;20053;-77
2022/11/25 15:43:55;;;;;;;11.07;2.17;;;15.00;70.60;;;;;;5078087;28;20406;-76
2022/11/25 15:46:22;;;;;;;10.57;2.47;;;15.00;70.50;;;;;;5077218;28;20088;-76
2022/11/25 15:48:50;;;;;;;11.98;2.60;;;15.00;70.50;;;;;;5077265;28;20041;-76
2022/11/25 15:51:31;;;;;;;12.20;2.70;;;15.00;70.60;;;;;;5091791;28;20474;-81
2022/11/25 15:54:11;;;;;;;9.77;2.55;;;15.10;70.70;;;;;;5079811;28;20051;-76
2022/11/25 15:56:42;;;;;;;11.85;2.38;;;15.20;70.60;;;;;;5080062;28;20382;-76
2022/11/25 15:59:46;;;;;;;13.18;2.33;;;15.30;70.40;;;;;;5083539;28;20368;-79
2022/11/25 16:02:36;;;;;;;10.15;2.10;;;15.40;70.30;;;;;;5069765;28;20127;-78
2022/11/25 16:05:11;;;;;;;11.13;1.90;;;15.50;70.20;;;;;;5097475;28;20051;-76
2022/11/25 16:07:53;;;;;;;17.67;3.60;;;15.50;70.20;;;;;;5097507;28;20327;-78
2022/11/25 16:10:28;;;;;;;21.60;2.97;;;15.50;70.30;;;;;;5097498;28;20043;-80
2022/11/25 16:13:22;;;;;;;19.75;2.65;;;15.60;70.50;;;;;;5081593;28;20121;-78
2022/11/25 16:15:56;;;;;;;25.83;3.60;;;15.60;70.70;;;;;;5059184;28;20051;-79
2022/11/25 16:18:56;;;;;;;21.90;3.05;;;15.60;71.40;;;;;;5076866;28;20041;-79
2022/11/25 16:21:21;;;;;;;20.42;3.90;;;15.60;71.00;;;;;;5078882;28;20075;-77
2022/11/25 16:24:25;;;;;;;21.65;3.67;;;15.60;71.10;;;;;;5096733;28;20076;-78
2022/11/25 16:27:15;;;;;;;25.33;3.65;;;15.70;71.70;;;;;;5094336;28;20048;-77
2022/11/25 16:30:05;;;;;;;30.17;4.10;;;15.60;71.30;;;;;;5097299;28;20082;-76
2022/11/25 16:32:32;;;;;;;24.58;3.72;;;15.60;71.50;;;;;;5086018;28;20037;-76
2022/11/25 16:35:20;;;;;;;25.33;4.30;;;15.70;71.60;;;;;;5058781;28;20127;-76
2022/11/25 16:37:47;;;;;;;21.77;3.22;;;15.70;71.90;;;;;;5059064;28;20045;-77
2022/11/25 16:40:14;;;;;;;19.63;2.47;;;15.80;72.00;;;;;;5059276;28;20075;-76
2022/11/25 16:42:40;;;;;;;20.13;3.30;;;15.90;72.10;;;;;;5087952;28;20048;-77
2022/11/25 16:45:21;;;;;;;18.35;2.83;;;16.00;72.10;;;;;;5079495;28;20377;-77
2022/11/25 16:47:47;;;;;;;14.52;2.45;;;16.10;72.20;;;;;;5095821;28;20044;-78
2022/11/25 16:50:14;;;;;;;20.75;3.28;;;16.20;72.00;;;;;;5079052;28;20466;-78
2022/11/25 16:52:39;;;;;;;20.33;2.97;;;16.30;72.00;;;;;;5085230;28;20045;-75
2022/11/25 16:55:05;;;;;;;18.25;3.25;;;16.30;71.90;;;;;;5076398;28;20352;-78
2022/11/25 16:57:33;;;;;;;22.58;3.80;;;16.40;71.90;;;;;;5076196;28;20127;-78
2022/11/25 17:00:06;;;;;;;27.05;4.10;;;16.40;72.00;;;;;;5076657;28;20045;-78
2022/11/25 17:02:32;;;;;;;23.00;3.10;;;16.40;72.10;;;;;;5059000;28;20475;-75
2022/11/25 17:05:14;;;;;;;22.58;3.20;;;16.40;72.50;;;;;;5076835;28;20390;-78
2022/11/25 17:07:40;;;;;;;22.27;3.63;;;16.40;71.80;;;;;;5076293;28;20332;-75
2022/11/25 17:10:06;;;;;;;19.25;3.58;;;16.40;71.80;;;;;;5075870;28;20107;-78
2022/11/25 17:12:44;;;;;;;22.17;3.10;;;16.40;71.90;;;;;;5075718;28;20048;-79
2022/11/25 17:15:19;;;;;;;17.83;3.20;;;16.40;72.10;;;;;;5041530;28;20447;-78
2022/11/25 17:17:47;;;;;;;32.30;4.22;;;16.40;72.10;;;;;;5058389;28;20520;-77
2022/11/25 17:20:20;;;;;;;18.08;3.97;;;16.40;71.40;;;;;;5075733;28;20040;-76
2022/11/25 17:22:47;;;;;;;24.92;5.60;;;16.40;70.40;;;;;;5068409;28;20048;-78
2022/11/25 17:25:13;;;;;;;26.77;4.43;;;16.40;69.80;;;;;;5094224;28;20055;-77
2022/11/25 17:27:40;;;;;;;32.72;5.28;;;16.30;69.20;;;;;;5094463;28;20119;-79
2022/11/25 17:33:49;;;;;;;24.50;5.18;;;16.20;67.70;;;;;;5074819;28;20047;-79
2022/11/25 17:36:15;;;;;;;27.70;5.78;;;16.10;67.80;;;;;;5075525;28;20036;-77
2022/11/25 17:38:41;;;;;;;27.95;4.70;;;16.10;68.00;;;;;;5058056;28;20116;-80
2022/11/25 17:41:30;;;;;;;34.05;5.13;;;16.00;68.00;;;;;;5040938;28;20416;-81
2022/11/25 18:33:40;;;;;;;15.90;3.60;;;15.60;69.20;;;;;;4842254;29;20054;-79
2022/11/25 18:36:11;;;;;;;9.75;2.63;;;15.60;69.50;;;;;;4859156;29;20327;-80
2022/11/25 18:38:37;;;;;;;14.68;3.70;;;15.50;69.50;;;;;;4858599;29;20454;-77
2022/11/25 18:41:02;;;;;;;14.48;3.22;;;15.50;69.70;;;;;;4843350;29;20089;-76
2022/11/25 18:43:28;;;;;;;14.98;3.42;;;15.40;69.80;;;;;;4844069;29;20120;-77
2022/11/25 18:45:54;;;;;;;14.25;3.17;;;15.40;70.10;;;;;;4852436;29;20450;-78
2022/11/25 18:48:24;;;;;;;15.98;2.92;;;15.40;71.10;;;;;;4844086;29;20132;-75
2022/11/25 18:50:52;;;;;;;13.98;2.80;;;15.40;71.50;;;;;;4843066;29;20045;-82
2022/11/25 18:53:18;;;;;;;14.68;3.00;;;15.30;72.20;;;;;;4843784;29;20046;-81
2022/11/25 18:55:44;;;;;;;23.73;3.75;;;15.30;72.40;;;;;;4842949;29;20050;-78
2022/11/25 18:58:25;;;;;;;11.80;2.97;;;15.30;72.90;;;;;;4844293;29;20073;-78
2022/11/25 19:01:05;;;;;;;14.50;2.10;;;15.40;72.90;;;;;;4858457;29;20366;-76
2022/11/25 19:03:31;;;;;;;9.90;2.65;;;15.40;73.60;;;;;;4843042;29;20343;-81
2022/11/25 19:06:02;;;;;;;8.30;2.83;;;15.40;74.20;;;;;;4842839;29;20525;-75
2022/11/25 19:08:28;;;;;;;13.25;2.30;;;15.40;76.80;;;;;;4843899;29;20049;-80
2022/11/25 19:10:54;;;;;;;13.43;2.67;;;15.40;78.10;;;;;;4845162;29;20125;-76
2022/11/25 19:13:34;;;;;;;11.07;1.77;;;15.40;78.50;;;;;;4847097;29;20060;-80
2022/11/25 19:16:06;;;;;;;8.73;1.73;;;15.40;78.40;;;;;;4847335;29;20113;-76
2022/11/25 19:18:31;;;;;;;10.02;1.92;;;15.40;78.40;;;;;;4847263;29;20093;-75
2022/11/25 19:20:57;;;;;;;8.27;1.80;;;15.40;77.90;;;;;;4847195;29;20046;-76